Time;durP1;ratioP1;P1;durP2;ratioP2;P2;SDS_P1;SDS_P2;PMS_P1;PMS_P2;Temp;Humidity;BMP_temperature;BMP_pressure;BME280_temperature;BME280_humidity;BME280_pressure;Samples;Min_cycle;Max_cycle;Signal;HPM_P1;HPM_P2
2021/06/01 00:01:25;;;;;;;4.60;2.47;;;;;;;;;;5084125;28;20529;-71
2021/06/01 00:03:51;;;;;;;3.43;2.50;;;;;;;;;;5087568;28;20803;-71
2021/06/01 00:06:18;;;;;;;2.53;2.13;;;;;;;;;;5088869;28;20436;-71
2021/06/01 00:08:44;;;;;;;3.70;2.87;;;;;;;;;;5085688;28;20469;-71
2021/06/01 00:11:10;;;;;;;3.90;2.63;;;;;;;;;;5087216;28;20437;-71
2021/06/01 00:13:37;;;;;;;2.80;2.60;;;;;;;;;;5071323;28;20528;-71
2021/06/01 00:16:04;;;;;;;3.60;2.40;;;;;;;;;;5070148;28;20437;-71
2021/06/01 00:18:30;;;;;;;3.40;2.50;;;;;;;;;;5072099;28;20440;-71
2021/06/01 00:20:56;;;;;;;3.20;2.60;;;;;;;;;;5077983;28;20462;-71
2021/06/01 00:23:22;;;;;;;7.33;2.90;;;;;;;;;;5078981;28;21124;-71
2021/06/01 00:25:49;;;;;;;3.80;2.30;;;;;;;;;;5080676;28;20432;-71
2021/06/01 00:28:15;;;;;;;2.17;2.00;;;;;;;;;;5080584;28;20529;-71
2021/06/01 00:30:41;;;;;;;3.90;2.50;;;;;;;;;;5085962;28;20428;-71
2021/06/01 00:33:08;;;;;;;7.00;2.60;;;;;;;;;;5081493;28;20455;-71
2021/06/01 00:35:34;;;;;;;9.83;2.80;;;;;;;;;;5089589;28;20440;-71
2021/06/01 00:38:03;;;;;;;3.33;2.10;;;;;;;;;;5081679;28;20936;-71
2021/06/01 00:40:29;;;;;;;3.33;2.90;;;;;;;;;;5084282;28;20926;-71
2021/06/01 00:42:55;;;;;;;2.13;1.83;;;;;;;;;;5087527;28;20950;-74
2021/06/01 00:45:23;;;;;;;3.33;2.63;;;;;;;;;;5084175;28;20436;-71
2021/06/01 00:47:49;;;;;;;6.30;2.50;;;;;;;;;;5068237;28;21162;-72
2021/06/01 00:50:16;;;;;;;5.77;2.33;;;;;;;;;;5087703;28;20494;-72
2021/06/01 00:52:42;;;;;;;3.53;2.73;;;;;;;;;;5082555;28;20452;-72
2021/06/01 00:55:09;;;;;;;5.33;2.40;;;;;;;;;;5087868;28;20433;-71
2021/06/01 00:57:35;;;;;;;3.03;2.23;;;;;;;;;;5082519;28;21205;-72
2021/06/01 01:00:02;;;;;;;2.87;2.60;;;;;;;;;;5074507;28;21025;-73
2021/06/01 01:02:29;;;;;;;2.90;2.03;;;;;;;;;;5092682;28;20452;-73
2021/06/01 01:04:56;;;;;;;4.50;2.87;;;;;;;;;;5080850;28;20433;-73
2021/06/01 01:07:43;;;;;;;3.63;2.50;;;;;;;;;;5085287;28;20493;-72
2021/06/01 01:10:10;;;;;;;6.43;2.70;;;;;;;;;;5067884;28;20471;-73
2021/06/01 01:12:46;;;;;;;3.10;2.80;;;;;;;;;;5088319;28;20456;-73
2021/06/01 01:15:13;;;;;;;3.13;2.10;;;;;;;;;;5078046;28;20436;-72
2021/06/01 01:17:49;;;;;;;2.37;1.83;;;;;;;;;;5095959;28;20435;-72
2021/06/01 01:20:15;;;;;;;3.37;2.50;;;;;;;;;;5078806;28;20502;-72
2021/06/01 01:22:42;;;;;;;4.30;3.10;;;;;;;;;;5078583;28;21367;-72
2021/06/01 01:25:09;;;;;;;5.13;2.73;;;;;;;;;;5077898;28;20937;-72
2021/06/01 01:27:52;;;;;;;3.60;2.73;;;;;;;;;;5078917;28;20525;-72
2021/06/01 01:30:18;;;;;;;7.40;3.10;;;;;;;;;;5096473;28;21007;-71
2021/06/01 01:32:51;;;;;;;2.50;2.17;;;;;;;;;;5095258;28;20456;-72
2021/06/01 01:35:17;;;;;;;4.40;3.10;;;;;;;;;;5087832;28;20462;-72
2021/06/01 01:37:44;;;;;;;3.40;2.23;;;;;;;;;;5083098;28;20777;-73
2021/06/01 01:40:10;;;;;;;2.33;2.13;;;;;;;;;;5079194;28;20888;-72
2021/06/01 01:42:42;;;;;;;3.70;2.27;;;;;;;;;;5095757;28;20546;-73
2021/06/01 01:45:19;;;;;;;6.23;2.63;;;;;;;;;;5078994;28;20450;-72
2021/06/01 01:50:42;;;;;;;4.10;2.27;;;;;;;;;;5080925;28;20514;-72
2021/06/01 01:53:11;;;;;;;3.43;2.40;;;;;;;;;;5085970;28;20445;-72
2021/06/01 01:55:37;;;;;;;2.90;2.60;;;;;;;;;;5095103;27;20836;-72
2021/06/01 01:58:03;;;;;;;2.73;2.20;;;;;;;;;;5096123;28;20787;-71
2021/06/01 02:00:29;;;;;;;3.30;2.20;;;;;;;;;;5094336;28;20807;-71
2021/06/01 02:02:56;;;;;;;3.20;2.30;;;;;;;;;;5099152;28;20842;-71
2021/06/01 02:05:22;;;;;;;3.20;2.20;;;;;;;;;;5080727;28;20502;-72
2021/06/01 02:07:48;;;;;;;3.20;2.60;;;;;;;;;;5076213;28;20424;-72
2021/06/01 02:10:14;;;;;;;2.60;2.17;;;;;;;;;;5080588;28;20463;-72
2021/06/01 02:12:41;;;;;;;3.57;2.60;;;;;;;;;;5100059;27;20833;-72
2021/06/01 02:15:08;;;;;;;2.33;2.17;;;;;;;;;;5084854;28;20881;-72
2021/06/01 02:17:34;;;;;;;3.30;2.17;;;;;;;;;;5077729;28;20811;-72
2021/06/01 02:20:00;;;;;;;4.90;2.50;;;;;;;;;;5076343;28;20953;-72
2021/06/01 02:25:19;;;;;;;4.90;2.57;;;;;;;;;;5088247;28;20802;-72
2021/06/01 02:27:52;;;;;;;5.77;2.63;;;;;;;;;;5077531;28;20923;-72
2021/06/01 02:30:19;;;;;;;3.47;2.27;;;;;;;;;;5075726;28;21017;-72
2021/06/01 02:32:47;;;;;;;3.97;2.60;;;;;;;;;;5075178;28;20457;-72
2021/06/01 02:35:23;;;;;;;4.37;2.10;;;;;;;;;;5082209;28;20520;-72
2021/06/01 02:37:50;;;;;;;4.33;3.07;;;;;;;;;;5084909;28;20435;-72
2021/06/01 02:40:17;;;;;;;3.77;2.33;;;;;;;;;;5081988;28;20440;-72
2021/06/01 02:42:44;;;;;;;5.97;2.60;;;;;;;;;;5086771;28;20464;-72
2021/06/01 02:45:11;;;;;;;2.50;2.20;;;;;;;;;;5097014;27;20433;-72
2021/06/01 02:47:38;;;;;;;4.80;2.73;;;;;;;;;;5087622;28;20533;-72
2021/06/01 02:50:06;;;;;;;5.07;2.83;;;;;;;;;;5094684;28;20468;-72
2021/06/01 02:52:33;;;;;;;3.50;2.17;;;;;;;;;;5081609;28;20519;-72
2021/06/01 02:55:07;;;;;;;3.70;2.73;;;;;;;;;;5086600;28;20428;-71
2021/06/01 02:57:33;;;;;;;3.53;3.23;;;;;;;;;;5104252;28;20777;-71
2021/06/01 02:59:59;;;;;;;4.17;3.40;;;;;;;;;;5082643;28;20816;-72
2021/06/01 03:02:29;;;;;;;3.97;2.60;;;;;;;;;;5086878;28;20871;-72
2021/06/01 03:04:56;;;;;;;3.93;2.33;;;;;;;;;;5099541;28;20443;-72
2021/06/01 03:07:23;;;;;;;4.33;2.50;;;;;;;;;;5090042;28;20536;-72
2021/06/01 03:09:49;;;;;;;4.00;2.33;;;;;;;;;;5094178;28;20992;-72
2021/06/01 03:14:53;;;;;;;5.60;2.33;;;;;;;;;;5083930;28;20428;-72
2021/06/01 03:17:20;;;;;;;3.87;2.63;;;;;;;;;;5081585;28;20432;-72
2021/06/01 03:19:46;;;;;;;3.80;2.73;;;;;;;;;;5075400;28;20441;-72
2021/06/01 03:22:12;;;;;;;3.30;2.80;;;;;;;;;;5077177;28;20452;-72
2021/06/01 03:24:38;;;;;;;3.90;3.07;;;;;;;;;;5075976;28;20443;-72
2021/06/01 03:27:04;;;;;;;3.73;2.57;;;;;;;;;;5080004;28;20440;-72
2021/06/01 03:29:30;;;;;;;4.47;2.60;;;;;;;;;;5097254;28;20492;-72
2021/06/01 03:31:56;;;;;;;11.03;3.00;;;;;;;;;;5087435;28;21028;-72
2021/06/01 03:34:23;;;;;;;3.20;2.00;;;;;;;;;;5080941;28;20428;-72
2021/06/01 03:36:49;;;;;;;2.70;2.50;;;;;;;;;;5080646;28;20508;-72
2021/06/01 03:39:16;;;;;;;4.23;3.03;;;;;;;;;;5076229;28;20512;-71
2021/06/01 03:41:42;;;;;;;4.83;2.60;;;;;;;;;;5079721;28;20505;-71
2021/06/01 03:44:08;;;;;;;3.10;2.80;;;;;;;;;;5083128;28;20436;-71
2021/06/01 03:46:35;;;;;;;3.00;2.70;;;;;;;;;;5087454;28;20440;-72
2021/06/01 03:49:01;;;;;;;3.20;2.47;;;;;;;;;;5079884;28;20460;-71
2021/06/01 03:51:27;;;;;;;5.07;3.23;;;;;;;;;;5100674;28;20433;-72
2021/06/01 03:53:53;;;;;;;3.83;2.87;;;;;;;;;;5076094;28;20456;-73
2021/06/01 03:56:19;;;;;;;4.33;3.20;;;;;;;;;;5079708;28;20810;-72
2021/06/01 03:58:45;;;;;;;3.87;2.93;;;;;;;;;;5079580;28;20519;-72
2021/06/01 04:01:11;;;;;;;5.93;2.87;;;;;;;;;;5081866;28;20437;-72
2021/06/01 04:03:41;;;;;;;5.00;3.30;;;;;;;;;;5089841;28;20456;-72
2021/06/01 04:06:07;;;;;;;4.87;3.50;;;;;;;;;;5094208;28;20942;-72
2021/06/01 04:08:33;;;;;;;4.77;3.07;;;;;;;;;;5071334;28;20456;-72
2021/06/01 04:10:59;;;;;;;4.67;3.00;;;;;;;;;;5074552;28;20451;-72
2021/06/01 04:13:25;;;;;;;3.80;2.90;;;;;;;;;;5080404;28;20464;-72
2021/06/01 04:15:51;;;;;;;3.20;2.83;;;;;;;;;;5104209;28;20436;-72
2021/06/01 04:18:17;;;;;;;4.30;3.30;;;;;;;;;;5088802;28;20819;-73
2021/06/01 04:20:43;;;;;;;4.37;3.23;;;;;;;;;;5075654;28;20552;-72
2021/06/01 04:23:09;;;;;;;3.23;2.47;;;;;;;;;;5080251;28;21233;-72
2021/06/01 04:25:35;;;;;;;3.40;2.60;;;;;;;;;;5077660;28;20425;-72
2021/06/01 04:28:01;;;;;;;3.60;3.07;;;;;;;;;;5072860;28;20816;-72
2021/06/01 04:30:27;;;;;;;4.53;2.70;;;;;;;;;;5081909;28;20464;-72
2021/06/01 04:32:53;;;;;;;4.87;3.20;;;;;;;;;;5096516;28;20461;-71
2021/06/01 04:35:19;;;;;;;4.53;3.03;;;;;;;;;;5069455;28;20514;-72
2021/06/01 04:37:45;;;;;;;5.53;2.97;;;;;;;;;;5076317;28;20425;-72
2021/06/01 04:40:14;;;;;;;5.67;3.10;;;;;;;;;;5091033;28;20943;-72
2021/06/01 04:42:40;;;;;;;3.70;3.07;;;;;;;;;;5081464;28;20456;-72
2021/06/01 04:45:07;;;;;;;7.20;4.70;;;;;;;;;;5083186;28;20429;-72
2021/06/01 04:47:33;;;;;;;3.77;2.83;;;;;;;;;;5078484;28;20516;-73
2021/06/01 04:49:59;;;;;;;3.83;2.73;;;;;;;;;;5095109;28;20554;-72
2021/06/01 04:52:25;;;;;;;8.10;3.17;;;;;;;;;;5082400;28;20839;-72
2021/06/01 04:54:50;;;;;;;3.53;2.67;;;;;;;;;;5096172;28;20420;-72
2021/06/01 04:57:16;;;;;;;3.73;2.40;;;;;;;;;;5070283;28;20439;-71
2021/06/01 04:59:42;;;;;;;5.37;3.30;;;;;;;;;;5076787;28;20559;-72
2021/06/01 05:02:08;;;;;;;5.60;2.47;;;;;;;;;;5086725;28;20535;-72
2021/06/01 05:04:35;;;;;;;5.13;3.50;;;;;;;;;;5081780;28;20527;-72
2021/06/01 05:07:01;;;;;;;4.87;3.30;;;;;;;;;;5079905;28;20431;-73
2021/06/01 05:09:27;;;;;;;3.47;2.93;;;;;;;;;;5084050;28;20463;-72
2021/06/01 05:11:54;;;;;;;5.40;3.90;;;;;;;;;;5100212;28;20535;-72
2021/06/01 05:14:20;;;;;;;4.90;2.97;;;;;;;;;;5092186;28;20976;-73
2021/06/01 05:16:46;;;;;;;5.63;3.70;;;;;;;;;;5070654;28;20483;-73
2021/06/01 05:19:12;;;;;;;5.23;3.60;;;;;;;;;;5080438;28;20862;-72
2021/06/01 05:21:38;;;;;;;5.20;2.87;;;;;;;;;;5095214;28;20467;-73
2021/06/01 05:24:04;;;;;;;6.77;4.00;;;;;;;;;;5083210;28;20444;-73
2021/06/01 05:26:30;;;;;;;4.50;3.40;;;;;;;;;;5079233;28;20441;-73
2021/06/01 05:28:56;;;;;;;4.40;3.60;;;;;;;;;;5085191;28;21022;-73
2021/06/01 05:31:58;;;;;;;8.53;3.43;;;;;;;;;;5102830;28;20946;-73
2021/06/01 05:34:14;;;;;;;5.90;3.90;;;;;;;;;;5079184;28;20467;-73
2021/06/01 05:36:41;;;;;;;4.30;3.47;;;;;;;;;;5069994;28;20423;-73
2021/06/01 05:39:09;;;;;;;6.33;4.03;;;;;;;;;;5084948;28;20428;-73
2021/06/01 05:41:35;;;;;;;3.63;3.27;;;;;;;;;;5087777;28;20490;-73
2021/06/01 05:44:01;;;;;;;8.53;3.97;;;;;;;;;;5083923;28;20464;-73
2021/06/01 05:46:28;;;;;;;4.60;3.50;;;;;;;;;;5095976;28;20433;-73
2021/06/01 05:48:54;;;;;;;3.43;2.73;;;;;;;;;;5091262;28;20471;-74
2021/06/01 05:51:26;;;;;;;4.93;3.07;;;;;;;;;;5082495;28;20424;-73
2021/06/01 05:53:53;;;;;;;7.03;4.17;;;;;;;;;;5088050;28;20444;-72
2021/06/01 05:56:19;;;;;;;5.73;3.47;;;;;;;;;;5085020;28;20429;-72
2021/06/01 05:58:45;;;;;;;5.90;3.53;;;;;;;;;;5097198;28;20566;-72
2021/06/01 06:01:11;;;;;;;6.73;3.90;;;;;;;;;;5103666;28;20519;-73
2021/06/01 06:03:37;;;;;;;6.30;3.97;;;;;;;;;;5098667;28;20521;-72
2021/06/01 06:06:11;;;;;;;5.33;3.87;;;;;;;;;;5089128;28;20440;-72
2021/06/01 06:08:37;;;;;;;6.50;4.10;;;;;;;;;;5089714;28;20543;-73
2021/06/01 06:11:03;;;;;;;8.00;3.63;;;;;;;;;;5081154;28;20553;-73
2021/06/01 06:13:29;;;;;;;4.57;3.40;;;;;;;;;;5081228;28;20873;-73
2021/06/01 06:15:55;;;;;;;6.37;3.70;;;;;;;;;;5083979;28;20811;-73
2021/06/01 06:18:48;;;;;;;5.03;3.47;;;;;;;;;;5081987;28;20429;-72
2021/06/01 06:21:14;;;;;;;5.37;3.90;;;;;;;;;;5068154;28;20819;-73
2021/06/01 06:23:41;;;;;;;6.33;3.60;;;;;;;;;;5099390;28;20458;-73
2021/06/01 06:26:07;;;;;;;7.27;3.00;;;;;;;;;;5092669;28;20468;-73
2021/06/01 06:28:34;;;;;;;5.63;3.87;;;;;;;;;;5084954;28;20456;-73
2021/06/01 06:31:00;;;;;;;6.43;4.10;;;;;;;;;;5077786;28;20441;-73
2021/06/01 06:33:26;;;;;;;5.03;3.70;;;;;;;;;;5092965;27;20457;-72
2021/06/01 06:35:52;;;;;;;7.07;3.93;;;;;;;;;;5085638;28;20836;-72
2021/06/01 06:38:18;;;;;;;5.47;3.70;;;;;;;;;;5085175;28;20436;-73
2021/06/01 06:40:50;;;;;;;6.77;3.60;;;;;;;;;;5081410;28;20478;-73
2021/06/01 06:43:16;;;;;;;5.17;3.13;;;;;;;;;;5079238;28;20539;-73
2021/06/01 06:45:42;;;;;;;4.30;2.90;;;;;;;;;;5085461;28;20984;-73
2021/06/01 06:48:10;;;;;;;9.07;3.47;;;;;;;;;;5091427;28;20451;-73
2021/06/01 06:50:36;;;;;;;4.60;3.03;;;;;;;;;;5086199;28;20468;-73
2021/06/01 06:53:03;;;;;;;5.43;3.60;;;;;;;;;;5081776;28;20459;-73
2021/06/01 06:55:29;;;;;;;3.90;3.27;;;;;;;;;;5080558;28;20437;-73
2021/06/01 06:57:55;;;;;;;3.80;2.90;;;;;;;;;;5082262;28;20447;-72
2021/06/01 07:00:25;;;;;;;3.23;2.73;;;;;;;;;;5083388;28;20459;-73
2021/06/01 07:02:52;;;;;;;4.00;3.03;;;;;;;;;;5084416;28;20533;-73
2021/06/01 07:05:19;;;;;;;5.20;2.97;;;;;;;;;;5089907;28;20448;-73
2021/06/01 07:07:46;;;;;;;3.60;2.70;;;;;;;;;;5092607;28;20436;-73
2021/06/01 07:10:13;;;;;;;3.80;2.67;;;;;;;;;;5078210;28;20465;-73
2021/06/01 07:12:43;;;;;;;2.80;1.73;;;;;;;;;;5080806;28;20514;-73
2021/06/01 07:15:12;;;;;;;11.83;2.33;;;;;;;;;;5077528;28;20485;-73
2021/06/01 07:17:42;;;;;;;6.30;2.60;;;;;;;;;;5082546;28;20519;-72
2021/06/01 07:20:09;;;;;;;3.97;2.43;;;;;;;;;;5071010;28;20436;-73
2021/06/01 07:22:35;;;;;;;4.43;2.13;;;;;;;;;;5088997;28;20822;-73
2021/06/01 07:25:01;;;;;;;2.03;1.73;;;;;;;;;;5099056;28;20510;-73
2021/06/01 07:27:28;;;;;;;3.87;2.27;;;;;;;;;;5099614;28;20443;-73
2021/06/01 07:29:54;;;;;;;2.10;1.90;;;;;;;;;;5078896;28;20456;-73
2021/06/01 07:32:21;;;;;;;2.70;2.20;;;;;;;;;;5084726;28;20463;-73
2021/06/01 07:34:47;;;;;;;2.50;2.30;;;;;;;;;;5084914;28;20433;-73
2021/06/01 07:37:13;;;;;;;2.50;2.20;;;;;;;;;;5088295;28;20429;-72
2021/06/01 07:39:39;;;;;;;1.80;1.70;;;;;;;;;;5087527;28;20445;-73
2021/06/01 07:42:06;;;;;;;3.10;2.07;;;;;;;;;;5085473;28;21031;-72
2021/06/01 07:44:33;;;;;;;3.90;1.57;;;;;;;;;;5085779;28;20443;-73
2021/06/01 07:46:59;;;;;;;2.23;1.90;;;;;;;;;;5081976;28;20519;-73
2021/06/01 07:49:25;;;;;;;1.77;1.13;;;;;;;;;;5083888;28;20464;-73
2021/06/01 07:51:51;;;;;;;1.40;1.10;;;;;;;;;;5098106;28;20480;-73
2021/06/01 07:54:17;;;;;;;1.43;1.33;;;;;;;;;;5086631;28;20432;-73
2021/06/01 07:56:43;;;;;;;1.53;1.40;;;;;;;;;;5086729;28;20435;-73
2021/06/01 07:59:09;;;;;;;3.57;1.90;;;;;;;;;;5081484;28;20432;-73
2021/06/01 08:01:35;;;;;;;1.77;1.40;;;;;;;;;;5083063;28;20997;-73
2021/06/01 08:04:01;;;;;;;2.40;1.50;;;;;;;;;;5085364;28;20493;-73
2021/06/01 08:06:30;;;;;;;2.00;1.80;;;;;;;;;;5088569;28;20436;-73
2021/06/01 08:08:57;;;;;;;0.93;0.93;;;;;;;;;;5087789;28;20463;-73
2021/06/01 08:11:23;;;;;;;1.20;1.10;;;;;;;;;;5079211;28;20534;-73
2021/06/01 08:13:49;;;;;;;3.47;1.40;;;;;;;;;;5091237;28;20435;-73
2021/06/01 08:16:15;;;;;;;0.97;0.80;;;;;;;;;;5082886;28;20444;-73
2021/06/01 08:18:48;;;;;;;2.70;1.00;;;;;;;;;;5081601;28;20599;-73
2021/06/01 08:21:18;;;;;;;2.43;1.07;;;;;;;;;;5087254;28;20483;-73
2021/06/01 08:23:44;;;;;;;1.13;0.80;;;;;;;;;;5077901;28;20484;-73
2021/06/01 13:20:07;;;;;;;2.17;1.40;;;;;;;;;;5059214;28;20518;-72
2021/06/01 13:30:45;;;;;;;1.53;1.43;;;;;;;;;;5061246;28;20421;-72
2021/06/01 13:38:53;;;;;;;1.63;1.30;;;;;;;;;;5061391;28;20484;-72
2021/06/01 13:46:43;;;;;;;2.77;1.63;;;;;;;;;;5070943;28;20508;-71
2021/06/01 13:57:06;;;;;;;1.67;1.57;;;;;;;;;;5064644;28;20513;-70
2021/06/01 13:59:40;;;;;;;2.33;2.13;;;;;;;;;;5062915;28;20421;-69
2021/06/01 14:02:27;;;;;;;1.70;1.60;;;;;;;;;;5065207;28;20445;-71
2021/06/01 15:10:53;;;;;;;3.40;1.60;;;;;;;;;;5034287;28;20488;-72
2021/06/01 15:28:36;;;;;;;2.70;2.20;;;;;;;;;;5048623;28;20512;-73
2021/06/01 15:49:34;;;;;;;3.43;1.93;;;;;;;;;;5042517;28;20495;-73
2021/06/01 16:11:32;;;;;;;1.27;1.17;;;;;;;;;;5030916;28;20444;-71
2021/06/01 16:33:14;;;;;;;1.40;1.27;;;;;;;;;;5046666;28;20509;-72
2021/06/01 17:03:17;;;;;;;5.40;4.30;;;;;;;;;;5032710;28;20519;-70
2021/06/01 17:11:20;;;;;;;10.57;6.90;;;;;;;;;;5040931;28;21162;-70
2021/06/01 17:13:49;;;;;;;16.70;11.60;;;;;;;;;;5036157;28;20569;-72
2021/06/01 17:35:21;;;;;;;11.20;7.83;;;;;;;;;;5033262;28;20449;-71
2021/06/01 17:37:47;;;;;;;4.17;2.03;;;;;;;;;;5047535;28;20417;-71
2021/06/01 17:40:16;;;;;;;2.20;1.80;;;;;;;;;;5046745;28;20443;-72
2021/06/01 17:42:50;;;;;;;1.80;1.47;;;;;;;;;;5028817;28;20463;-72
2021/06/01 17:45:17;;;;;;;1.93;1.40;;;;;;;;;;5032449;28;20453;-71
2021/06/01 17:48:14;;;;;;;1.63;1.53;;;;;;;;;;5036770;28;20434;-71
2021/06/01 17:50:40;;;;;;;1.40;1.30;;;;;;;;;;5047527;28;20427;-71
2021/06/01 17:53:06;;;;;;;1.83;1.33;;;;;;;;;;5023732;28;21061;-71
2021/06/01 17:55:34;;;;;;;2.80;1.50;;;;;;;;;;5046764;28;20445;-72
2021/06/01 17:58:00;;;;;;;1.20;1.10;;;;;;;;;;5056905;28;20443;-71
2021/06/01 18:00:27;;;;;;;1.70;1.60;;;;;;;;;;5041917;28;20811;-74
2021/06/01 18:02:53;;;;;;;1.50;1.40;;;;;;;;;;5052184;28;20454;-75
2021/06/01 18:05:21;;;;;;;1.20;1.10;;;;;;;;;;5048703;28;20446;-74
2021/06/01 18:08:01;;;;;;;1.20;1.10;;;;;;;;;;5047195;28;20437;-74
2021/06/01 18:38:19;;;;;;;1.30;1.20;;;;;;;;;;5046431;28;20814;-74
2021/06/01 19:05:56;;;;;;;3.13;1.13;;;;;;;;;;5041817;28;20538;-74
2021/06/01 19:51:42;;;;;;;3.00;1.20;;;;;;;;;;5044583;28;20492;-72
2021/06/01 19:54:08;;;;;;;2.07;1.70;;;;;;;;;;5047557;28;20470;-73
2021/06/01 19:56:37;;;;;;;1.73;1.20;;;;;;;;;;5049998;28;20464;-72
2021/06/01 19:59:03;;;;;;;3.63;1.30;;;;;;;;;;5047128;28;20489;-72
2021/06/01 20:01:30;;;;;;;1.33;1.23;;;;;;;;;;5034636;28;20810;-71
2021/06/01 20:03:56;;;;;;;1.53;1.40;;;;;;;;;;5042726;28;20501;-72
2021/06/01 20:06:22;;;;;;;2.80;1.43;;;;;;;;;;5044079;28;20438;-72
2021/06/01 20:08:49;;;;;;;2.17;1.73;;;;;;;;;;5040489;28;20442;-73
2021/06/01 20:11:16;;;;;;;2.13;1.60;;;;;;;;;;5043458;28;20488;-73
2021/06/01 20:13:42;;;;;;;1.40;1.30;;;;;;;;;;5044908;28;21007;-72
2021/06/01 20:16:08;;;;;;;1.50;1.20;;;;;;;;;;5045313;28;20485;-73
2021/06/01 20:18:40;;;;;;;2.07;1.33;;;;;;;;;;5040366;28;20465;-73
2021/06/01 20:21:10;;;;;;;1.60;1.50;;;;;;;;;;5042318;28;20438;-72
2021/06/01 20:23:36;;;;;;;1.40;1.30;;;;;;;;;;5048694;28;20961;-73
2021/06/01 20:26:03;;;;;;;2.40;1.57;;;;;;;;;;5041546;28;20524;-72
2021/06/01 20:28:33;;;;;;;1.37;1.27;;;;;;;;;;5044645;28;20437;-72
2021/06/01 20:31:05;;;;;;;3.27;1.90;;;;;;;;;;5045988;28;20474;-73
2021/06/01 20:33:33;;;;;;;2.07;1.70;;;;;;;;;;5044824;28;20498;-73
2021/06/01 20:35:59;;;;;;;1.23;1.13;;;;;;;;;;5044768;28;20438;-72
2021/06/01 20:38:27;;;;;;;1.40;1.30;;;;;;;;;;5044004;28;20862;-73
2021/06/01 20:40:54;;;;;;;1.23;1.13;;;;;;;;;;5044444;28;20438;-73
2021/06/01 20:43:21;;;;;;;3.20;1.43;;;;;;;;;;5047653;28;20536;-72
2021/06/01 20:45:47;;;;;;;1.83;1.27;;;;;;;;;;5043704;28;20875;-72
2021/06/01 20:48:17;;;;;;;2.83;1.80;;;;;;;;;;5051829;28;20466;-72
2021/06/01 20:50:46;;;;;;;4.13;1.33;;;;;;;;;;5050586;28;21028;-72
2021/06/01 20:53:12;;;;;;;6.00;1.47;;;;;;;;;;5043908;28;20531;-72
2021/06/01 20:55:39;;;;;;;1.50;1.40;;;;;;;;;;5043747;28;20994;-73
2021/06/01 20:58:07;;;;;;;2.50;0.93;;;;;;;;;;5047050;28;20442;-72
2021/06/01 21:00:35;;;;;;;1.90;1.10;;;;;;;;;;5046990;28;20446;-72
2021/06/01 21:03:09;;;;;;;1.20;1.10;;;;;;;;;;5044574;28;20519;-72
2021/06/01 21:05:36;;;;;;;1.20;1.10;;;;;;;;;;5040823;28;21007;-71
2021/06/01 21:08:03;;;;;;;1.07;0.97;;;;;;;;;;5040609;28;20442;-71
2021/06/01 21:10:29;;;;;;;1.50;1.37;;;;;;;;;;5044441;28;20916;-73
2021/06/01 21:12:56;;;;;;;2.03;1.10;;;;;;;;;;5041345;28;20981;-72
2021/06/01 21:15:23;;;;;;;1.97;1.20;;;;;;;;;;5043469;28;20466;-72
2021/06/01 21:17:49;;;;;;;0.93;0.83;;;;;;;;;;5044998;28;20549;-73
2021/06/01 21:20:17;;;;;;;1.60;1.20;;;;;;;;;;5040261;28;20434;-72
2021/06/01 21:22:44;;;;;;;1.17;0.90;;;;;;;;;;5045025;28;20860;-72
2021/06/01 21:25:15;;;;;;;1.23;1.13;;;;;;;;;;5044889;28;20434;-73
2021/06/01 21:27:42;;;;;;;1.83;1.07;;;;;;;;;;5041158;28;20446;-72
2021/06/01 21:30:09;;;;;;;0.90;0.77;;;;;;;;;;5047798;28;21009;-72
2021/06/01 21:32:36;;;;;;;1.07;1.00;;;;;;;;;;5042217;28;20473;-73
2021/06/01 21:35:06;;;;;;;1.00;0.70;;;;;;;;;;5046439;28;20452;-72
2021/06/01 21:37:32;;;;;;;0.80;0.80;;;;;;;;;;5049267;28;20465;-72
2021/06/01 21:40:02;;;;;;;1.00;0.90;;;;;;;;;;5047542;28;20442;-73
2021/06/01 21:42:29;;;;;;;0.90;0.90;;;;;;;;;;5046265;28;20875;-73
2021/06/01 21:44:57;;;;;;;0.80;0.80;;;;;;;;;;5051296;28;20426;-73
2021/06/01 21:47:23;;;;;;;1.57;0.80;;;;;;;;;;5046726;28;20813;-73
2021/06/01 21:49:52;;;;;;;0.73;0.73;;;;;;;;;;5046533;28;20469;-73
2021/06/01 21:52:19;;;;;;;1.27;1.17;;;;;;;;;;5047898;28;20985;-73
2021/06/01 21:54:48;;;;;;;0.67;0.67;;;;;;;;;;5049194;28;20457;-72
2021/06/01 21:57:14;;;;;;;1.00;0.80;;;;;;;;;;5048163;28;20444;-73
2021/06/01 21:59:41;;;;;;;0.73;0.73;;;;;;;;;;5045495;28;20438;-72
2021/06/01 22:02:07;;;;;;;0.60;0.60;;;;;;;;;;5038589;28;20471;-71
2021/06/01 22:04:33;;;;;;;0.63;0.63;;;;;;;;;;5041132;28;21077;-72
2021/06/01 22:06:59;;;;;;;0.63;0.60;;;;;;;;;;5045286;28;20442;-72
2021/06/01 22:09:25;;;;;;;0.60;0.60;;;;;;;;;;5044418;28;20473;-73
2021/06/01 22:11:51;;;;;;;0.67;0.67;;;;;;;;;;5049197;28;20761;-73
2021/06/01 22:14:18;;;;;;;0.63;0.63;;;;;;;;;;5047993;28;20469;-72
2021/06/01 22:16:48;;;;;;;1.00;0.90;;;;;;;;;;5048335;28;20446;-72
2021/06/01 22:19:14;;;;;;;0.67;0.67;;;;;;;;;;5043864;28;20725;-73
2021/06/01 22:21:40;;;;;;;0.60;0.60;;;;;;;;;;5042662;28;20529;-73
2021/06/01 22:24:07;;;;;;;0.80;0.80;;;;;;;;;;5047784;28;21096;-73
2021/06/01 22:26:39;;;;;;;0.70;0.70;;;;;;;;;;5043006;28;20438;-72
2021/06/01 22:29:06;;;;;;;0.60;0.60;;;;;;;;;;5038910;28;20895;-73
2021/06/01 22:31:33;;;;;;;0.67;0.67;;;;;;;;;;5047973;28;20436;-72
2021/06/01 22:34:00;;;;;;;1.73;0.77;;;;;;;;;;5044188;28;20475;-73
2021/06/01 22:36:28;;;;;;;0.60;0.60;;;;;;;;;;5043699;28;20992;-73
2021/06/01 22:38:58;;;;;;;0.90;0.90;;;;;;;;;;5037719;28;20446;-72
2021/06/01 22:41:25;;;;;;;0.77;0.70;;;;;;;;;;5039668;28;20434;-72
2021/06/01 22:43:53;;;;;;;0.60;0.60;;;;;;;;;;5045626;28;20842;-73
2021/06/01 22:46:20;;;;;;;0.70;0.70;;;;;;;;;;5043905;28;20442;-72
2021/06/01 22:48:49;;;;;;;0.70;0.70;;;;;;;;;;5047387;28;20469;-72
2021/06/01 22:51:16;;;;;;;2.40;0.83;;;;;;;;;;5035791;28;20994;-70
2021/06/01 22:53:42;;;;;;;0.97;0.90;;;;;;;;;;5054994;28;20458;-72
2021/06/01 22:56:10;;;;;;;1.10;1.00;;;;;;;;;;5046671;28;20433;-73
2021/06/01 22:58:41;;;;;;;0.80;0.70;;;;;;;;;;5040571;28;20437;-73
2021/06/01 23:01:17;;;;;;;0.67;0.67;;;;;;;;;;5044416;28;20430;-72
2021/06/01 23:03:53;;;;;;;0.63;0.63;;;;;;;;;;5047569;28;20827;-71
2021/06/01 23:06:20;;;;;;;2.10;1.17;;;;;;;;;;5043780;28;20438;-71
2021/06/01 23:08:56;;;;;;;0.90;0.90;;;;;;;;;;5043084;28;20493;-73
2021/06/01 23:11:33;;;;;;;0.70;0.70;;;;;;;;;;5044619;28;20506;-72
2021/06/01 23:14:00;;;;;;;1.13;1.03;;;;;;;;;;5038752;28;21052;-72
2021/06/01 23:16:37;;;;;;;0.80;0.80;;;;;;;;;;5041280;28;20454;-72
2021/06/01 23:19:04;;;;;;;2.63;0.80;;;;;;;;;;5041664;28;20512;-72
2021/06/01 23:21:31;;;;;;;1.00;0.90;;;;;;;;;;5046753;28;20446;-72
2021/06/01 23:23:57;;;;;;;1.20;1.07;;;;;;;;;;5038967;28;20442;-71
2021/06/01 23:26:27;;;;;;;0.90;0.90;;;;;;;;;;5041212;28;20446;-73
2021/06/01 23:28:53;;;;;;;2.40;1.00;;;;;;;;;;5040789;28;20920;-73
2021/06/01 23:31:19;;;;;;;1.20;1.10;;;;;;;;;;5039260;28;20442;-73
2021/06/01 23:33:45;;;;;;;1.10;1.00;;;;;;;;;;5041938;28;20473;-73
2021/06/01 23:36:38;;;;;;;1.77;1.10;;;;;;;;;;5044570;28;20516;-73
2021/06/01 23:39:13;;;;;;;1.63;1.30;;;;;;;;;;5041413;28;20438;-73
2021/06/01 23:41:40;;;;;;;0.93;0.93;;;;;;;;;;5044034;28;20433;-73
2021/06/01 23:44:06;;;;;;;1.50;1.40;;;;;;;;;;5041336;28;20533;-73
2021/06/01 23:46:33;;;;;;;1.53;1.20;;;;;;;;;;5040918;28;20446;-73
2021/06/01 23:51:50;;;;;;;1.37;1.27;;;;;;;;;;5044181;28;20798;-72
2021/06/01 23:54:16;;;;;;;1.30;1.20;;;;;;;;;;5042538;28;20473;-72
2021/06/01 23:56:42;;;;;;;1.97;1.27;;;;;;;;;;5040267;28;20442;-75
2021/06/01 23:59:08;;;;;;;2.90;1.47;;;;;;;;;;5040346;28;20986;-72
